createdAt,value
2018-01-27T00:00:50.598Z,21.00
2018-01-27T00:01:50.604Z,21.20
2018-01-27T00:02:50.592Z,21.60
2018-01-27T00:03:50.632Z,21.50
2018-01-27T00:04:50.589Z,23.30
2018-01-27T00:05:50.585Z,22.50
2018-01-27T00:06:50.582Z,23.20
2018-01-27T00:07:50.582Z,23.50
2018-01-27T00:08:50.637Z,24.60
2018-01-27T00:09:50.577Z,22.20
2018-01-27T00:10:50.612Z,21.80
2018-01-27T00:11:50.569Z,21.90
2018-01-27T00:12:50.569Z,23.60
2018-01-27T00:13:50.570Z,24.30
2018-01-27T00:14:50.607Z,24.10
2018-01-27T00:15:50.564Z,24.80
2018-01-27T00:16:50.560Z,27.50
2018-01-27T00:17:50.557Z,25.00
2018-01-27T00:18:50.550Z,23.80
2018-01-27T00:19:50.613Z,25.70
2018-01-27T00:20:50.607Z,25.40
2018-01-27T00:21:50.544Z,24.40
2018-01-27T00:22:50.541Z,24.60
2018-01-27T00:23:50.540Z,23.00
2018-01-27T00:24:50.538Z,24.40
2018-01-27T00:25:50.578Z,24.00
2018-01-27T00:26:50.534Z,25.20
2018-01-27T00:27:50.530Z,26.30
2018-01-27T00:28:50.526Z,28.70
2018-01-27T00:29:50.571Z,27.10
2018-01-27T00:30:50.558Z,23.90
2018-01-27T00:31:50.518Z,24.50
2018-01-27T00:32:51.031Z,25.30
2018-01-27T00:33:51.017Z,26.30
2018-01-27T00:34:50.511Z,25.50
2018-01-27T00:35:50.546Z,26.50
2018-01-27T00:36:50.505Z,31.60
2018-01-27T00:37:50.503Z,74.90
2018-01-27T00:38:51.299Z,69.10
2018-01-27T00:39:50.496Z,61.40
2018-01-27T00:40:50.533Z,48.70
2018-01-27T00:41:50.490Z,25.10
2018-01-27T00:42:50.496Z,25.10
2018-01-27T00:43:50.487Z,22.10
2018-01-27T00:44:50.485Z,21.80
2018-01-27T00:45:50.524Z,22.20
2018-01-27T00:46:50.481Z,21.00
2018-01-27T00:47:50.477Z,22.00
2018-01-27T00:48:50.473Z,21.90
2018-01-27T00:49:50.476Z,22.60
2018-01-27T00:50:50.508Z,22.80
2018-01-27T00:51:50.464Z,23.30
2018-01-27T00:52:50.467Z,24.80
2018-01-27T00:53:50.456Z,23.40
2018-01-27T00:54:50.458Z,22.80
2018-01-27T00:55:50.520Z,23.20
2018-01-27T00:56:50.509Z,22.40
2018-01-27T00:57:50.450Z,22.80
2018-01-27T00:58:50.449Z,22.80
2018-01-27T00:59:50.446Z,24.10
2018-01-27T01:00:50.439Z,25.00
2018-01-27T01:01:50.482Z,26.90
2018-01-27T01:02:50.436Z,27.90
2018-01-27T01:03:50.433Z,29.10
2018-01-27T01:04:50.431Z,30.20
2018-01-27T01:05:50.428Z,32.30
2018-01-27T01:06:50.473Z,30.80
2018-01-27T01:07:50.424Z,29.20
2018-01-27T01:08:50.424Z,30.80
2018-01-27T01:09:50.417Z,31.00
2018-01-27T01:10:50.413Z,31.00
2018-01-27T01:11:50.416Z,31.60
2018-01-27T01:12:50.445Z,32.10
2018-01-27T01:13:50.409Z,32.80
2018-01-27T01:14:50.404Z,31.40
2018-01-27T01:15:50.401Z,32.50
2018-01-27T01:16:50.397Z,31.90
2018-01-27T01:17:50.434Z,31.00
2018-01-27T01:18:50.393Z,33.20
2018-01-27T01:19:50.389Z,35.20
2018-01-27T01:20:50.386Z,37.50
2018-01-27T01:21:50.381Z,39.70
2018-01-27T01:22:50.427Z,38.50
2018-01-27T01:23:50.382Z,43.50
2018-01-27T01:24:50.376Z,42.70
2018-01-27T01:25:50.373Z,46.30
2018-01-27T01:26:50.405Z,43.90
2018-01-27T01:27:50.368Z,39.50
2018-01-27T01:28:50.365Z,39.70
2018-01-27T01:29:50.439Z,42.80
2018-01-27T01:30:50.357Z,39.70
2018-01-27T01:31:50.401Z,46.20
2018-01-27T01:32:50.354Z,50.80
2018-01-27T01:33:50.354Z,58.10
2018-01-27T01:34:50.354Z,57.80
2018-01-27T01:35:50.351Z,50.80
2018-01-27T01:36:50.380Z,46.40
2018-01-27T01:37:50.341Z,56.40
2018-01-27T01:38:50.339Z,47.10
2018-01-27T01:39:51.099Z,48.40
2018-01-27T01:40:50.337Z,42.40
2018-01-27T01:41:50.388Z,39.20
2018-01-27T01:42:50.328Z,34.70
2018-01-27T01:43:50.325Z,34.10
2018-01-27T01:44:50.321Z,35.50
2018-01-27T01:45:50.320Z,33.90
2018-01-27T01:46:50.352Z,32.40
2018-01-27T01:47:50.357Z,32.20
2018-01-27T01:48:50.313Z,28.60
2018-01-27T01:49:50.307Z,33.10
2018-01-27T01:50:50.307Z,30.30
2018-01-27T01:51:50.306Z,29.70
2018-01-27T01:52:50.362Z,29.40
2018-01-27T01:53:50.296Z,30.40
2018-01-27T01:54:50.295Z,28.70
2018-01-27T01:55:50.292Z,27.50
2018-01-27T01:56:50.287Z,29.00
2018-01-27T01:57:50.347Z,31.10
2018-01-27T01:58:50.284Z,28.00
2018-01-27T01:59:50.435Z,26.70
2018-01-27T02:00:50.278Z,30.20
2018-01-27T02:01:50.276Z,28.30
2018-01-27T02:02:50.273Z,33.60
2018-01-27T02:03:50.325Z,28.00
2018-01-27T02:04:50.267Z,27.10
2018-01-27T02:05:50.266Z,23.80
2018-01-27T02:06:50.324Z,23.20
2018-01-27T02:07:50.259Z,23.20
2018-01-27T02:08:50.651Z,22.10
2018-01-27T02:09:50.253Z,22.00
2018-01-27T02:10:50.252Z,22.80
2018-01-27T02:11:50.305Z,21.80
2018-01-27T02:12:50.247Z,21.80
2018-01-27T02:13:50.241Z,21.20
2018-01-27T02:14:50.239Z,20.40
2018-01-27T02:15:50.237Z,19.20
2018-01-27T02:16:50.272Z,19.20
2018-01-27T02:17:50.229Z,19.50
2018-01-27T02:18:50.280Z,20.50
2018-01-27T02:19:50.230Z,20.50
2018-01-27T02:20:50.224Z,20.00
2018-01-27T02:21:50.220Z,20.60
2018-01-27T02:22:50.225Z,19.70
2018-01-27T02:23:50.217Z,20.30
2018-01-27T02:24:50.259Z,20.40
2018-01-27T02:25:50.663Z,21.20
2018-01-27T02:26:50.216Z,20.50
2018-01-27T02:27:50.209Z,20.60
2018-01-27T02:28:50.208Z,20.00
2018-01-27T02:29:50.244Z,18.70
2018-01-27T02:30:50.197Z,17.70
2018-01-27T02:31:50.198Z,17.30
2018-01-27T02:32:50.195Z,18.10
2018-01-27T02:33:50.231Z,17.90
2018-01-27T02:34:50.186Z,17.50
2018-01-27T02:35:50.185Z,18.40
2018-01-27T02:36:50.183Z,17.40
2018-01-27T02:37:50.184Z,18.10
2018-01-27T02:38:50.224Z,19.00
2018-01-27T02:39:50.175Z,18.70
2018-01-27T02:40:50.174Z,18.50
2018-01-27T02:41:50.169Z,17.20
2018-01-27T02:42:50.167Z,17.10
2018-01-27T02:43:50.225Z,17.90
2018-01-27T02:44:50.123Z,17.80
2018-01-27T02:45:50.112Z,18.40
2018-01-27T02:46:50.110Z,19.00
2018-01-27T02:47:50.148Z,18.90
2018-01-27T02:48:50.156Z,18.40
2018-01-27T02:49:50.102Z,20.50
2018-01-27T02:50:50.111Z,18.90
2018-01-27T02:51:50.110Z,19.70
2018-01-27T02:52:50.096Z,21.50
2018-01-27T02:53:50.137Z,21.60
2018-01-27T02:54:50.089Z,20.80
2018-01-27T02:55:50.092Z,21.70
2018-01-27T02:56:50.095Z,20.90
2018-01-27T02:57:50.093Z,20.60
2018-01-27T02:58:50.132Z,21.10
2018-01-27T02:59:50.084Z,20.20
2018-01-27T03:00:50.073Z,21.40
2018-01-27T03:01:50.077Z,23.10
2018-01-27T03:02:50.068Z,22.00
2018-01-27T03:03:50.118Z,22.20
2018-01-27T03:04:50.104Z,21.70
2018-01-27T03:05:50.069Z,22.00
2018-01-27T03:06:50.057Z,21.10
2018-01-27T03:07:50.068Z,23.00
2018-01-27T03:08:50.050Z,23.50
2018-01-27T03:09:50.097Z,21.40
2018-01-27T03:10:50.046Z,21.10
2018-01-27T03:11:50.045Z,21.50
2018-01-27T03:12:50.046Z,22.30
2018-01-27T03:13:50.048Z,21.50
2018-01-27T03:14:50.087Z,23.10
2018-01-27T03:15:50.032Z,22.90
2018-01-27T03:16:50.041Z,23.30
2018-01-27T03:17:50.069Z,24.10
2018-01-27T03:18:50.027Z,24.10
2018-01-27T03:19:50.062Z,22.40
2018-01-27T03:20:50.030Z,22.50
2018-01-27T03:21:50.019Z,21.80
2018-01-27T03:22:50.027Z,23.10
2018-01-27T03:23:50.013Z,22.70
2018-01-27T03:24:50.063Z,22.80
2018-01-27T03:25:50.018Z,23.50
2018-01-27T03:26:50.172Z,23.60
2018-01-27T03:27:50.003Z,21.50
2018-01-27T03:28:50.050Z,23.40
2018-01-27T03:29:49.997Z,25.70
2018-01-27T03:30:50.034Z,24.90
2018-01-27T03:31:50.005Z,22.30
2018-01-27T03:32:49.986Z,22.00
2018-01-27T03:33:49.987Z,21.80
2018-01-27T03:34:49.981Z,21.20
2018-01-27T03:35:50.043Z,20.90
2018-01-27T03:36:49.980Z,20.50
2018-01-27T03:37:49.976Z,20.90
2018-01-27T03:38:49.972Z,21.40
2018-01-27T03:39:49.975Z,21.50
2018-01-27T03:40:50.024Z,21.70
2018-01-27T03:41:50.418Z,22.30
2018-01-27T03:42:49.975Z,21.60
2018-01-27T03:43:50.112Z,21.30
2018-01-27T03:44:49.958Z,21.20
2018-01-27T03:45:49.962Z,20.50
2018-01-27T03:46:49.989Z,21.50
2018-01-27T03:47:49.960Z,20.80
2018-01-27T03:48:49.947Z,20.70
2018-01-27T03:49:49.953Z,20.70
2018-01-27T03:50:49.938Z,19.90
2018-01-27T03:51:49.983Z,21.60
2018-01-27T03:52:49.945Z,21.10
2018-01-27T03:53:49.934Z,20.60
2018-01-27T03:54:49.969Z,19.70
2018-01-27T03:55:49.926Z,19.20
2018-01-27T03:56:49.927Z,18.70
2018-01-27T03:57:49.971Z,17.30
2018-01-27T03:58:49.920Z,17.60
2018-01-27T03:59:49.916Z,17.00
2018-01-27T04:00:49.919Z,17.10
2018-01-27T04:01:49.920Z,17.20
2018-01-27T04:02:49.962Z,16.60
2018-01-27T04:03:49.951Z,18.10
2018-01-27T04:04:49.910Z,19.00
2018-01-27T04:05:49.904Z,20.20
2018-01-27T04:06:49.907Z,19.80
2018-01-27T04:07:49.906Z,21.80
2018-01-27T04:08:49.938Z,21.30
2018-01-27T04:09:49.993Z,21.20
2018-01-27T04:10:49.891Z,20.00
2018-01-27T04:11:49.898Z,20.30
2018-01-27T04:12:49.933Z,20.30
2018-01-27T04:13:49.925Z,21.80
2018-01-27T04:14:49.888Z,20.20
2018-01-27T04:15:49.886Z,20.10
2018-01-27T04:16:49.875Z,19.70
2018-01-27T04:17:49.869Z,19.40
2018-01-27T04:18:49.911Z,19.80
2018-01-27T04:19:49.877Z,22.70
2018-01-27T04:20:49.866Z,22.70
2018-01-27T04:21:49.872Z,22.60
2018-01-27T04:22:49.904Z,21.90
2018-01-27T04:23:49.855Z,20.00
2018-01-27T04:24:49.863Z,21.90
2018-01-27T04:25:49.849Z,23.00
2018-01-27T04:26:49.847Z,23.00
2018-01-27T04:27:49.885Z,24.40
2018-01-27T04:28:49.842Z,25.00
2018-01-27T04:29:49.841Z,28.40
2018-01-27T04:30:49.849Z,23.30
2018-01-27T04:31:49.836Z,24.80
2018-01-27T04:32:49.872Z,26.10
2018-01-27T04:33:49.839Z,25.70
2018-01-27T04:34:49.828Z,28.00
2018-01-27T04:35:49.828Z,26.70
2018-01-27T04:36:49.833Z,26.70
2018-01-27T04:37:49.875Z,25.30
2018-01-27T04:38:49.856Z,26.30
2018-01-27T04:39:49.828Z,27.60
2018-01-27T04:40:49.811Z,24.50
2018-01-27T04:41:49.825Z,25.60
2018-01-27T04:42:49.816Z,26.30
2018-01-27T04:43:49.850Z,24.00
2018-01-27T04:44:49.816Z,26.50
2018-01-27T04:45:49.805Z,29.10
2018-01-27T04:46:50.225Z,28.20
2018-01-27T04:47:49.794Z,27.90
2018-01-27T04:48:49.846Z,26.70
2018-01-27T04:49:49.788Z,30.70
2018-01-27T04:50:49.795Z,30.50
2018-01-27T04:51:49.780Z,27.60
2018-01-27T04:52:49.792Z,27.30
2018-01-27T04:53:49.823Z,25.60
2018-01-27T04:54:49.784Z,24.60
2018-01-27T04:55:49.774Z,25.90
2018-01-27T04:56:49.779Z,26.20
2018-01-27T04:57:49.766Z,24.10
2018-01-27T04:58:49.806Z,24.90
2018-01-27T04:59:49.763Z,23.60
2018-01-27T05:00:49.761Z,24.20
2018-01-27T05:01:49.770Z,27.70
2018-01-27T05:02:49.935Z,27.10
2018-01-27T05:03:49.807Z,37.20
2018-01-27T05:04:49.751Z,37.10
2018-01-27T05:05:49.758Z,30.00
2018-01-27T05:06:49.743Z,23.00
2018-01-27T05:07:49.752Z,23.50
2018-01-27T05:08:49.784Z,26.20
2018-01-27T05:09:49.746Z,27.10
2018-01-27T05:10:49.736Z,24.40
2018-01-27T05:11:49.729Z,26.30
2018-01-27T05:12:49.734Z,21.70
2018-01-27T05:13:49.775Z,21.70
2018-01-27T05:14:49.735Z,19.80
2018-01-27T05:15:49.729Z,20.20
2018-01-27T05:16:49.726Z,19.60
2018-01-27T05:17:49.719Z,19.40
2018-01-27T05:18:49.759Z,19.50
2018-01-27T05:19:49.715Z,18.80
2018-01-27T05:20:49.716Z,19.20
2018-01-27T05:21:49.701Z,20.20
2018-01-27T05:22:49.707Z,19.60
2018-01-27T05:23:49.744Z,19.90
2018-01-27T05:24:49.743Z,20.20
2018-01-27T05:25:49.699Z,18.00
2018-01-27T05:26:49.703Z,19.50
2018-01-27T05:27:49.702Z,20.60
2018-01-27T05:28:49.693Z,21.00
2018-01-27T05:29:50.659Z,20.80
2018-01-27T05:30:49.687Z,20.10
2018-01-27T05:31:49.678Z,19.50
2018-01-27T05:32:49.673Z,21.40
2018-01-27T05:33:49.675Z,20.70
2018-01-27T05:34:49.712Z,22.10
2018-01-27T05:35:49.673Z,21.70
2018-01-27T05:36:49.658Z,25.80
2018-01-27T05:37:49.664Z,34.80
2018-01-27T05:38:49.665Z,30.10
2018-01-27T05:39:49.702Z,26.80
2018-01-27T05:40:49.650Z,23.50
2018-01-27T05:41:49.645Z,24.00
2018-01-27T05:42:49.677Z,21.80
2018-01-27T05:43:49.641Z,21.00
2018-01-27T05:44:49.688Z,19.80
2018-01-27T05:45:49.680Z,18.50
2018-01-27T05:46:49.649Z,18.00
2018-01-27T05:47:49.629Z,18.00
2018-01-27T05:48:49.640Z,17.70
2018-01-27T05:49:49.669Z,17.70
2018-01-27T05:50:49.622Z,17.30
2018-01-27T05:51:49.618Z,17.90
2018-01-27T05:52:49.617Z,17.80
2018-01-27T05:53:49.664Z,19.00
2018-01-27T05:54:49.623Z,17.30
2018-01-27T05:55:49.649Z,18.50
2018-01-27T05:56:49.614Z,20.10
2018-01-27T05:57:49.604Z,20.30
2018-01-27T05:58:49.612Z,19.40
2018-01-27T05:59:49.597Z,19.20
2018-01-27T06:00:49.640Z,21.40
2018-01-27T06:01:49.602Z,20.50
2018-01-27T06:02:49.630Z,20.40
2018-01-27T06:03:49.597Z,20.10
2018-01-27T06:04:49.590Z,22.20
2018-01-27T06:05:49.594Z,23.10
2018-01-27T06:06:49.629Z,21.50
2018-01-27T06:07:49.587Z,23.30
2018-01-27T06:08:49.636Z,22.30
2018-01-27T06:09:49.580Z,22.90
2018-01-27T06:10:49.577Z,24.50
2018-01-27T06:11:49.602Z,24.10
2018-01-27T06:12:49.574Z,25.00
2018-01-27T06:13:49.561Z,24.20
2018-01-27T06:14:49.574Z,24.70
2018-01-27T06:15:49.569Z,24.30
2018-01-27T06:16:49.592Z,23.10
2018-01-27T06:17:49.562Z,23.40
2018-01-27T06:18:49.558Z,22.20
2018-01-27T06:19:49.546Z,23.10
2018-01-27T06:20:49.543Z,24.00
2018-01-27T06:21:49.586Z,24.40
2018-01-27T06:22:49.595Z,23.90
2018-01-27T06:23:49.548Z,24.50
2018-01-27T06:24:49.534Z,23.70
2018-01-27T06:25:49.541Z,24.20
2018-01-27T06:26:49.535Z,25.90
2018-01-27T06:27:49.587Z,26.10
2018-01-27T06:28:49.526Z,25.30
2018-01-27T06:29:49.522Z,24.90
2018-01-27T06:30:49.526Z,25.50
2018-01-27T06:31:49.528Z,25.30
2018-01-27T06:32:49.557Z,25.20
2018-01-27T06:33:49.518Z,26.30
2018-01-27T06:34:49.515Z,24.90
2018-01-27T06:35:49.506Z,25.50
2018-01-27T06:36:49.513Z,25.90
2018-01-27T06:37:49.545Z,26.20
2018-01-27T06:38:49.547Z,25.40
2018-01-27T06:39:49.508Z,24.60
2018-01-27T06:40:49.501Z,24.50
2018-01-27T06:41:49.488Z,24.20
2018-01-27T06:42:49.534Z,23.50
2018-01-27T06:43:49.521Z,24.00
2018-01-27T06:44:49.486Z,23.60
2018-01-27T06:45:49.493Z,23.70
2018-01-27T06:46:49.474Z,25.20
2018-01-27T06:47:49.478Z,25.70
2018-01-27T06:48:49.578Z,24.50
2018-01-27T06:49:49.472Z,24.80
2018-01-27T06:50:49.463Z,25.10
2018-01-27T06:51:49.477Z,25.90
2018-01-27T06:52:49.469Z,28.10
2018-01-27T06:53:49.496Z,27.70
2018-01-27T06:54:49.474Z,26.20
2018-01-27T06:55:49.450Z,27.60
2018-01-27T06:56:49.457Z,27.40
2018-01-27T06:57:49.446Z,25.40
2018-01-27T06:58:49.497Z,28.00
2018-01-27T06:59:49.452Z,29.40
2018-01-27T07:00:49.449Z,32.20
2018-01-27T07:01:49.436Z,32.50
2018-01-27T07:02:49.443Z,32.80
2018-01-27T07:03:49.499Z,33.90
2018-01-27T07:04:49.475Z,35.80
2018-01-27T07:05:49.440Z,38.50
2018-01-27T07:06:49.431Z,33.80
2018-01-27T07:07:49.421Z,36.50
2018-01-27T07:08:49.418Z,34.70
2018-01-27T07:09:49.459Z,31.40
2018-01-27T07:10:49.412Z,32.40
2018-01-27T07:11:49.418Z,35.90
2018-01-27T07:12:49.415Z,31.40
2018-01-27T07:13:49.401Z,30.70
2018-01-27T07:14:49.459Z,34.40
2018-01-27T07:15:49.410Z,33.40
2018-01-27T07:16:49.404Z,35.50
2018-01-27T07:17:49.398Z,30.10
2018-01-27T07:18:49.434Z,30.50
2018-01-27T07:19:49.397Z,27.30
2018-01-27T07:20:49.432Z,28.40
2018-01-27T07:21:49.558Z,28.80
2018-01-27T07:22:49.388Z,29.80
2018-01-27T07:23:49.425Z,29.70
2018-01-27T07:24:49.387Z,28.50
2018-01-27T07:25:49.376Z,28.00
2018-01-27T07:26:49.379Z,27.70
2018-01-27T07:27:49.378Z,27.00
2018-01-27T07:28:49.406Z,28.10
2018-01-27T07:29:49.418Z,28.20
2018-01-27T07:30:49.362Z,29.40
2018-01-27T07:31:49.366Z,27.20
2018-01-27T07:32:49.367Z,27.80
2018-01-27T07:33:49.356Z,27.60
2018-01-27T07:34:49.406Z,26.20
2018-01-27T07:35:50.294Z,26.20
2018-01-27T07:36:49.347Z,27.40
2018-01-27T07:37:49.352Z,27.20
2018-01-27T07:38:49.341Z,27.70
2018-01-27T07:39:49.393Z,26.70
2018-01-27T07:40:49.336Z,26.70
2018-01-27T07:41:49.345Z,26.50
2018-01-27T07:42:49.342Z,27.80
2018-01-27T07:43:49.382Z,25.50
2018-01-27T07:44:49.330Z,26.60
2018-01-27T07:45:49.390Z,27.40
2018-01-27T07:46:49.322Z,27.30
2018-01-27T07:47:49.319Z,27.50
2018-01-27T07:48:49.362Z,27.50
2018-01-27T07:49:49.312Z,28.50
2018-01-27T07:50:49.312Z,26.80
2018-01-27T07:51:49.361Z,30.00
2018-01-27T07:52:49.314Z,28.60
2018-01-27T07:53:49.355Z,28.10
2018-01-27T07:54:49.299Z,29.40
2018-01-27T07:55:49.299Z,29.20
2018-01-27T07:56:50.300Z,29.60
2018-01-27T07:57:49.293Z,29.80
2018-01-27T07:58:49.304Z,29.50
2018-01-27T07:59:49.297Z,29.20
2018-01-27T08:00:49.295Z,29.70
2018-01-27T08:01:49.288Z,32.10
2018-01-27T08:02:49.338Z,31.10
2018-01-27T08:03:49.325Z,27.20
2018-01-27T08:04:49.276Z,29.70
2018-01-27T08:05:49.273Z,29.80
2018-01-27T08:06:49.324Z,30.10
2018-01-27T08:07:49.326Z,30.70
2018-01-27T08:08:49.267Z,29.60
2018-01-27T08:09:49.262Z,32.00
2018-01-27T08:10:49.273Z,30.80
2018-01-27T08:11:49.261Z,33.50
2018-01-27T08:12:49.306Z,32.10
2018-01-27T08:13:49.265Z,31.50
2018-01-27T08:14:49.263Z,29.60
2018-01-27T08:15:50.135Z,30.20
2018-01-27T08:16:49.261Z,31.20
2018-01-27T08:17:49.294Z,31.20
2018-01-27T08:18:49.242Z,31.00
2018-01-27T08:19:49.239Z,31.80
2018-01-27T08:20:49.246Z,30.40
2018-01-27T08:21:49.242Z,30.20
2018-01-27T08:22:49.283Z,30.40
2018-01-27T08:23:49.300Z,33.80
2018-01-27T08:24:49.242Z,31.60
2018-01-27T08:25:49.233Z,32.70
2018-01-27T08:26:49.231Z,32.70
2018-01-27T08:27:49.312Z,29.50
2018-01-27T08:28:49.226Z,27.40
2018-01-27T08:29:49.267Z,30.60
2018-01-27T08:30:49.225Z,29.10
2018-01-27T08:31:49.222Z,28.70
2018-01-27T08:32:49.208Z,26.90
2018-01-27T08:33:49.216Z,29.40
2018-01-27T08:34:49.203Z,29.30
2018-01-27T08:35:49.256Z,29.70
2018-01-27T08:36:49.210Z,28.30
2018-01-27T08:37:49.202Z,29.40
2018-01-27T08:38:49.208Z,28.90
2018-01-27T08:39:49.240Z,27.20
2018-01-27T08:40:49.202Z,28.80
2018-01-27T08:41:49.189Z,25.90
2018-01-27T08:42:49.231Z,29.70
2018-01-27T08:43:49.190Z,28.40
2018-01-27T08:44:49.189Z,29.80
2018-01-27T08:45:49.222Z,29.10
2018-01-27T08:46:49.185Z,31.50
2018-01-27T08:47:49.182Z,32.00
2018-01-27T08:48:49.170Z,29.20
2018-01-27T08:49:49.165Z,30.20
2018-01-27T08:50:49.211Z,29.80
2018-01-27T08:51:49.175Z,28.00
2018-01-27T08:52:49.157Z,31.40
2018-01-27T08:53:50.140Z,29.30
2018-01-27T08:54:49.150Z,30.00
2018-01-27T08:55:49.188Z,28.40
2018-01-27T08:56:49.150Z,28.20
2018-01-27T08:57:49.153Z,29.00
2018-01-27T08:58:49.145Z,29.30
2018-01-27T08:59:49.155Z,28.10
2018-01-27T09:00:49.185Z,28.70
2018-01-27T09:01:51.313Z,28.30
2018-01-27T09:02:49.191Z,27.50
2018-01-27T09:03:49.152Z,27.20
2018-01-27T09:04:49.211Z,29.00
2018-01-27T09:05:49.143Z,27.70
2018-01-27T09:06:49.268Z,28.20
2018-01-27T09:07:49.180Z,28.90
2018-01-27T09:08:49.126Z,27.70
2018-01-27T09:09:49.124Z,28.40
2018-01-27T09:10:49.125Z,29.20
2018-01-27T09:11:49.120Z,28.50
2018-01-27T09:12:49.169Z,27.50
2018-01-27T09:13:49.132Z,29.40
2018-01-27T09:14:49.110Z,26.20
2018-01-27T09:15:49.120Z,26.40
2018-01-27T09:16:49.148Z,29.30
2018-01-27T09:17:49.170Z,29.40
2018-01-27T09:18:50.020Z,29.00
2018-01-27T09:19:49.112Z,28.70
2018-01-27T09:20:49.098Z,30.30
2018-01-27T09:21:49.104Z,30.20
2018-01-27T09:22:49.136Z,29.40
2018-01-27T09:23:49.345Z,28.80
2018-01-27T09:24:49.094Z,29.20
2018-01-27T09:25:49.086Z,27.40
2018-01-27T09:26:49.098Z,29.60
2018-01-27T09:27:49.088Z,27.90
2018-01-27T09:28:49.124Z,28.00
2018-01-27T09:29:49.077Z,28.70
2018-01-27T09:30:49.083Z,27.80
2018-01-27T09:31:49.945Z,29.90
2018-01-27T09:32:49.112Z,30.00
2018-01-27T09:33:49.217Z,29.80
2018-01-27T09:34:49.078Z,30.10
2018-01-27T09:35:49.071Z,29.40
2018-01-27T09:36:49.072Z,27.10
2018-01-27T09:37:49.103Z,29.10
2018-01-27T09:38:49.060Z,29.00
2018-01-27T09:39:49.057Z,29.70
2018-01-27T09:40:49.065Z,29.10
2018-01-27T09:41:49.066Z,28.60
2018-01-27T09:42:49.089Z,31.30
2018-01-27T09:43:49.096Z,29.10
2018-01-27T09:44:49.055Z,28.80
2018-01-27T09:45:49.053Z,27.30
2018-01-27T09:46:49.042Z,29.80
2018-01-27T09:47:49.143Z,26.70
2018-01-27T09:48:49.051Z,30.20
2018-01-27T09:49:49.037Z,27.60
2018-01-27T09:50:49.042Z,25.80
2018-01-27T09:51:49.032Z,27.20
2018-01-27T09:52:49.083Z,27.60
2018-01-27T09:53:49.036Z,30.70
2018-01-27T09:54:49.078Z,31.70
2018-01-27T09:55:49.024Z,31.00
2018-01-27T09:56:49.034Z,31.50
2018-01-27T09:57:49.029Z,31.00
2018-01-27T09:58:49.028Z,29.10
2018-01-27T09:59:49.062Z,28.40
2018-01-27T10:00:49.013Z,29.70
2018-01-27T10:01:49.018Z,30.10
2018-01-27T10:02:49.051Z,29.60
2018-01-27T10:03:49.016Z,28.40
2018-01-27T10:04:49.093Z,31.50
2018-01-27T10:05:49.009Z,29.70
2018-01-27T10:06:49.223Z,35.50
2018-01-27T10:07:49.048Z,32.50
2018-01-27T10:08:49.005Z,31.00
2018-01-27T10:09:49.005Z,31.20
2018-01-27T10:10:49.040Z,32.10
2018-01-27T10:11:48.991Z,30.20
2018-01-27T10:12:49.036Z,29.10
2018-01-27T10:13:48.983Z,31.10
2018-01-27T10:14:48.982Z,28.80
2018-01-27T10:15:48.979Z,30.20
2018-01-27T10:16:49.030Z,30.00
2018-01-27T10:17:49.015Z,29.80
2018-01-27T10:18:48.972Z,28.40
2018-01-27T10:19:48.981Z,28.00
2018-01-27T10:20:48.970Z,28.80
2018-01-27T10:21:48.977Z,28.70
2018-01-27T10:22:49.010Z,29.30
2018-01-27T10:23:48.975Z,28.90
2018-01-27T10:24:48.971Z,28.30
2018-01-27T10:25:48.962Z,29.20
2018-01-27T10:26:48.958Z,27.40
2018-01-27T10:27:49.003Z,28.30
2018-01-27T10:28:48.961Z,29.60
2018-01-27T10:29:48.969Z,27.10
2018-01-27T10:30:48.959Z,29.00
2018-01-27T10:31:48.948Z,27.90
2018-01-27T10:32:49.005Z,26.60
2018-01-27T10:33:48.943Z,26.80
2018-01-27T10:34:48.943Z,25.80
2018-01-27T10:35:48.941Z,27.20
2018-01-27T10:36:48.945Z,26.90
2018-01-27T10:37:48.973Z,28.30
2018-01-27T10:38:48.949Z,27.00
2018-01-27T10:39:48.931Z,26.10
2018-01-27T10:40:48.928Z,26.50
2018-01-27T10:41:49.720Z,27.30
2018-01-27T10:42:48.981Z,28.00
2018-01-27T10:43:48.934Z,26.60
2018-01-27T10:44:48.930Z,27.50
2018-01-27T10:45:48.919Z,27.50
2018-01-27T10:46:48.920Z,26.20
2018-01-27T10:47:48.959Z,25.80
2018-01-27T10:48:48.970Z,24.90
2018-01-27T10:49:48.921Z,27.10
2018-01-27T10:50:48.923Z,26.00
2018-01-27T10:51:48.911Z,26.90
2018-01-27T10:52:48.918Z,26.60
2018-01-27T10:53:48.961Z,25.80
2018-01-27T10:54:48.908Z,25.80
2018-01-27T10:55:49.002Z,24.40
2018-01-27T10:56:50.052Z,24.40
2018-01-27T10:57:48.898Z,23.50
2018-01-27T10:58:49.762Z,23.40
2018-01-27T10:59:48.903Z,23.70
2018-01-27T11:00:48.905Z,23.50
2018-01-27T11:01:48.902Z,24.30
2018-01-27T11:02:48.901Z,23.70
2018-01-27T11:03:48.946Z,23.30
2018-01-27T11:04:49.730Z,25.40
2018-01-27T11:05:48.897Z,23.30
2018-01-27T11:06:48.898Z,23.60
2018-01-27T11:07:48.912Z,22.80
2018-01-27T11:08:48.932Z,21.60
2018-01-27T11:09:48.930Z,22.20
2018-01-27T11:10:48.890Z,24.60
2018-01-27T11:11:48.882Z,21.80
2018-01-27T11:12:48.880Z,26.00
2018-01-27T11:13:48.937Z,22.40
2018-01-27T11:14:49.054Z,21.70
2018-01-27T11:15:48.886Z,23.10
2018-01-27T11:16:48.883Z,24.20
2018-01-27T11:17:48.876Z,25.00
2018-01-27T11:18:48.929Z,24.70
2018-01-27T11:19:48.912Z,23.30
2018-01-27T11:20:48.885Z,26.80
2018-01-27T11:21:48.867Z,27.10
2018-01-27T11:22:48.867Z,26.90
2018-01-27T11:23:48.874Z,27.20
2018-01-27T11:24:48.916Z,25.40
2018-01-27T11:25:48.873Z,24.70
2018-01-27T11:26:48.862Z,24.00
2018-01-27T11:27:48.870Z,23.70
2018-01-27T11:28:49.253Z,26.10
2018-01-27T11:29:48.900Z,25.40
2018-01-27T11:30:48.864Z,24.00
2018-01-27T11:31:48.861Z,24.70
2018-01-27T11:32:48.858Z,23.00
2018-01-27T11:33:48.894Z,22.00
2018-01-27T11:34:48.845Z,24.40
2018-01-27T11:35:48.862Z,24.70
2018-01-27T11:36:48.857Z,24.00
2018-01-27T11:37:48.842Z,23.00
2018-01-27T11:38:48.879Z,23.80
2018-01-27T11:39:48.846Z,24.90
2018-01-27T11:40:48.886Z,25.10
2018-01-27T11:41:48.848Z,24.40
2018-01-27T11:42:48.844Z,23.90
2018-01-27T11:43:48.836Z,24.70
2018-01-27T11:44:48.840Z,23.00
2018-01-27T11:45:48.883Z,25.30
2018-01-27T11:46:48.826Z,24.30
2018-01-27T11:47:48.867Z,25.90
2018-01-27T11:48:48.826Z,23.40
2018-01-27T11:49:48.833Z,23.50
2018-01-27T11:50:48.861Z,22.70
2018-01-27T11:51:48.832Z,22.30
2018-01-27T11:52:48.818Z,23.60
2018-01-27T11:53:48.827Z,26.10
2018-01-27T11:54:48.817Z,26.90
2018-01-27T11:55:48.859Z,23.00
2018-01-27T11:56:48.823Z,25.70
2018-01-27T11:57:48.812Z,24.20
2018-01-27T11:58:48.882Z,22.70
2018-01-27T11:59:48.817Z,21.80
2018-01-27T12:00:48.859Z,28.70
2018-01-27T12:01:48.802Z,27.50
2018-01-27T12:02:48.845Z,35.50
2018-01-27T12:03:49.258Z,26.60
2018-01-27T12:04:48.799Z,29.90
2018-01-27T12:05:48.797Z,54.00
2018-01-27T12:06:49.216Z,49.10
2018-01-27T12:07:48.836Z,24.10
2018-01-27T12:08:48.804Z,23.90
2018-01-27T12:09:48.802Z,24.10
2018-01-27T12:10:48.835Z,23.30
2018-01-27T12:11:48.869Z,23.60
2018-01-27T12:12:48.785Z,24.10
2018-01-27T12:13:48.796Z,26.20
2018-01-27T12:14:48.790Z,25.60
2018-01-27T12:15:48.942Z,26.00
2018-01-27T12:16:48.823Z,23.60
2018-01-27T12:17:48.820Z,24.20
2018-01-27T12:18:49.660Z,22.80
2018-01-27T12:19:48.794Z,24.00
2018-01-27T12:20:48.781Z,22.80
2018-01-27T12:21:49.629Z,24.70
2018-01-27T12:22:48.832Z,21.30
2018-01-27T12:23:48.780Z,20.80
2018-01-27T12:24:48.786Z,22.20
2018-01-27T12:25:48.785Z,23.40
2018-01-27T12:26:48.782Z,44.90
2018-01-27T12:27:48.818Z,33.20
2018-01-27T12:28:48.771Z,23.80
2018-01-27T12:29:48.776Z,21.40
2018-01-27T12:30:48.764Z,32.50
2018-01-27T12:31:48.832Z,34.60
2018-01-27T12:32:48.819Z,24.30
2018-01-27T12:33:48.761Z,20.60
2018-01-27T12:34:48.769Z,20.40
2018-01-27T12:35:48.770Z,22.00
2018-01-27T12:36:48.771Z,30.40
2018-01-27T12:37:48.823Z,34.40
2018-01-27T12:38:48.764Z,28.50
2018-01-27T12:39:48.765Z,28.90
2018-01-27T12:40:48.758Z,37.00
2018-01-27T12:41:48.803Z,40.20
2018-01-27T12:42:49.139Z,38.50
2018-01-27T12:43:48.768Z,20.80
2018-01-27T12:44:48.760Z,22.90
2018-01-27T12:45:48.756Z,22.60
2018-01-27T12:46:48.802Z,20.80
2018-01-27T12:47:48.814Z,43.90
2018-01-27T12:48:49.008Z,26.20
2018-01-27T12:49:48.756Z,38.60
2018-01-27T12:50:48.757Z,31.50
2018-01-27T12:51:48.800Z,19.70
2018-01-27T12:52:48.792Z,25.40